sensor_id;sensor_type;location;lat;lon;timestamp;temperature;humidity
75134;HTU21D;73631;44.326;40.200;2024-02-23T00:01:33;4.76;68.62
75134;HTU21D;73631;44.326;40.200;2024-02-23T00:03:59;4.77;68.62
75134;HTU21D;73631;44.326;40.200;2024-02-23T00:06:28;4.78;68.66
75134;HTU21D;73631;44.326;40.200;2024-02-23T00:08:55;4.78;68.71
75134;HTU21D;73631;44.326;40.200;2024-02-23T00:11:22;4.79;68.74
75134;HTU21D;73631;44.326;40.200;2024-02-23T00:13:48;4.83;68.75
75134;HTU21D;73631;44.326;40.200;2024-02-23T00:16:14;4.86;68.75
75134;HTU21D;73631;44.326;40.200;2024-02-23T00:18:41;4.89;68.69
75134;HTU21D;73631;44.326;40.200;2024-02-23T00:21:07;4.89;68.66
75134;HTU21D;73631;44.326;40.200;2024-02-23T00:23:34;4.90;68.67
75134;HTU21D;73631;44.326;40.200;2024-02-23T00:26:00;4.89;68.67
75134;HTU21D;73631;44.326;40.200;2024-02-23T00:28:26;4.90;68.68
75134;HTU21D;73631;44.326;40.200;2024-02-23T00:30:53;4.90;68.68
75134;HTU21D;73631;44.326;40.200;2024-02-23T00:33:19;4.91;68.68
75134;HTU21D;73631;44.326;40.200;2024-02-23T00:35:45;4.91;68.68
75134;HTU21D;73631;44.326;40.200;2024-02-23T00:38:12;4.90;68.68
75134;HTU21D;73631;44.326;40.200;2024-02-23T00:40:38;4.90;68.71
75134;HTU21D;73631;44.326;40.200;2024-02-23T00:43:05;4.90;68.71
75134;HTU21D;73631;44.326;40.200;2024-02-23T00:45:31;4.90;68.68
75134;HTU21D;73631;44.326;40.200;2024-02-23T00:47:58;4.89;68.69
75134;HTU21D;73631;44.326;40.200;2024-02-23T00:50:25;4.87;68.70
75134;HTU21D;73631;44.326;40.200;2024-02-23T00:52:53;4.87;68.69
75134;HTU21D;73631;44.326;40.200;2024-02-23T00:55:20;4.83;68.69
75134;HTU21D;73631;44.326;40.200;2024-02-23T00:57:46;4.82;68.71
75134;HTU21D;73631;44.326;40.200;2024-02-23T01:00:13;4.79;68.68
75134;HTU21D;73631;44.326;40.200;2024-02-23T01:02:40;4.75;68.61
75134;HTU21D;73631;44.326;40.200;2024-02-23T01:05:07;4.69;68.66
75134;HTU21D;73631;44.326;40.200;2024-02-23T01:07:35;4.64;68.71
75134;HTU21D;73631;44.326;40.200;2024-02-23T01:10:02;4.59;68.78
75134;HTU21D;73631;44.326;40.200;2024-02-23T01:12:29;4.56;68.86
75134;HTU21D;73631;44.326;40.200;2024-02-23T01:14:56;4.53;68.91
75134;HTU21D;73631;44.326;40.200;2024-02-23T01:17:22;4.53;68.96
75134;HTU21D;73631;44.326;40.200;2024-02-23T01:19:49;4.51;69.00
75134;HTU21D;73631;44.326;40.200;2024-02-23T01:22:15;4.50;68.94
75134;HTU21D;73631;44.326;40.200;2024-02-23T01:24:41;4.47;68.93
75134;HTU21D;73631;44.326;40.200;2024-02-23T01:27:08;4.43;68.96
75134;HTU21D;73631;44.326;40.200;2024-02-23T01:29:34;4.39;69.01
75134;HTU21D;73631;44.326;40.200;2024-02-23T01:32:01;4.37;69.07
75134;HTU21D;73631;44.326;40.200;2024-02-23T01:34:27;4.36;69.12
75134;HTU21D;73631;44.326;40.200;2024-02-23T01:36:54;4.35;69.08
75134;HTU21D;73631;44.326;40.200;2024-02-23T01:39:21;4.32;69.04
75134;HTU21D;73631;44.326;40.200;2024-02-23T01:41:47;4.30;69.12
75134;HTU21D;73631;44.326;40.200;2024-02-23T01:44:13;4.28;69.16
75134;HTU21D;73631;44.326;40.200;2024-02-23T01:46:41;4.27;69.18
75134;HTU21D;73631;44.326;40.200;2024-02-23T01:49:08;4.27;69.18
75134;HTU21D;73631;44.326;40.200;2024-02-23T01:51:35;4.27;69.17
75134;HTU21D;73631;44.326;40.200;2024-02-23T01:54:02;4.26;69.16
75134;HTU21D;73631;44.326;40.200;2024-02-23T01:56:30;4.23;69.24
75134;HTU21D;73631;44.326;40.200;2024-02-23T01:58:57;4.24;69.29
75134;HTU21D;73631;44.326;40.200;2024-02-23T02:01:24;4.24;69.28
75134;HTU21D;73631;44.326;40.200;2024-02-23T02:03:51;4.23;69.27
75134;HTU21D;73631;44.326;40.200;2024-02-23T02:06:17;4.24;69.33
75134;HTU21D;73631;44.326;40.200;2024-02-23T02:08:44;4.24;69.33
75134;HTU21D;73631;44.326;40.200;2024-02-23T02:11:11;4.26;69.39
75134;HTU21D;73631;44.326;40.200;2024-02-23T02:13:38;4.24;69.36
75134;HTU21D;73631;44.326;40.200;2024-02-23T02:16:04;4.26;69.35
75134;HTU21D;73631;44.326;40.200;2024-02-23T02:18:31;4.24;69.36
75134;HTU21D;73631;44.326;40.200;2024-02-23T02:20:58;4.23;69.39
75134;HTU21D;73631;44.326;40.200;2024-02-23T02:23:25;4.23;69.42
75134;HTU21D;73631;44.326;40.200;2024-02-23T02:25:55;4.24;69.45
75134;HTU21D;73631;44.326;40.200;2024-02-23T02:28:23;4.26;69.46
75134;HTU21D;73631;44.326;40.200;2024-02-23T02:30:51;4.26;69.46
75134;HTU21D;73631;44.326;40.200;2024-02-23T02:33:18;4.27;69.46
75134;HTU21D;73631;44.326;40.200;2024-02-23T02:35:45;4.28;69.49
75134;HTU21D;73631;44.326;40.200;2024-02-23T02:38:11;4.30;69.48
75134;HTU21D;73631;44.326;40.200;2024-02-23T02:40:38;4.31;69.45
75134;HTU21D;73631;44.326;40.200;2024-02-23T02:43:04;4.28;69.45
75134;HTU21D;73631;44.326;40.200;2024-02-23T02:45:31;4.28;69.44
75134;HTU21D;73631;44.326;40.200;2024-02-23T02:48:00;4.27;69.48
75134;HTU21D;73631;44.326;40.200;2024-02-23T02:50:28;4.26;69.47
75134;HTU21D;73631;44.326;40.200;2024-02-23T02:52:54;4.24;69.45
75134;HTU21D;73631;44.326;40.200;2024-02-23T02:55:20;4.24;69.48
75134;HTU21D;73631;44.326;40.200;2024-02-23T02:57:47;4.21;69.48
75134;HTU21D;73631;44.326;40.200;2024-02-23T03:00:13;4.22;69.54
75134;HTU21D;73631;44.326;40.200;2024-02-23T03:02:40;4.20;69.54
75134;HTU21D;73631;44.326;40.200;2024-02-23T03:05:06;4.20;69.53
75134;HTU21D;73631;44.326;40.200;2024-02-23T03:07:33;4.18;69.57
75134;HTU21D;73631;44.326;40.200;2024-02-23T03:09:59;4.18;69.61
75134;HTU21D;73631;44.326;40.200;2024-02-23T03:12:25;4.17;69.64
75134;HTU21D;73631;44.326;40.200;2024-02-23T03:14:52;4.16;69.65
75134;HTU21D;73631;44.326;40.200;2024-02-23T03:17:18;4.15;69.68
75134;HTU21D;73631;44.326;40.200;2024-02-23T03:19:45;4.13;69.67
75134;HTU21D;73631;44.326;40.200;2024-02-23T03:22:11;4.13;69.71
75134;HTU21D;73631;44.326;40.200;2024-02-23T03:24:38;4.14;69.74
75134;HTU21D;73631;44.326;40.200;2024-02-23T03:27:04;4.15;69.76
75134;HTU21D;73631;44.326;40.200;2024-02-23T03:29:31;4.14;69.81
75134;HTU21D;73631;44.326;40.200;2024-02-23T03:31:58;4.14;69.80
75134;HTU21D;73631;44.326;40.200;2024-02-23T03:34:25;4.14;69.80
75134;HTU21D;73631;44.326;40.200;2024-02-23T03:36:51;4.13;69.82
75134;HTU21D;73631;44.326;40.200;2024-02-23T03:39:17;4.14;69.84
75134;HTU21D;73631;44.326;40.200;2024-02-23T03:41:44;4.13;69.79
75134;HTU21D;73631;44.326;40.200;2024-02-23T03:44:10;4.13;69.81
75134;HTU21D;73631;44.326;40.200;2024-02-23T03:46:37;4.09;69.78
75134;HTU21D;73631;44.326;40.200;2024-02-23T03:49:03;4.06;69.82
75134;HTU21D;73631;44.326;40.200;2024-02-23T03:51:30;4.05;69.84
75134;HTU21D;73631;44.326;40.200;2024-02-23T03:53:58;4.04;69.84
75134;HTU21D;73631;44.326;40.200;2024-02-23T03:56:24;4.03;69.84
75134;HTU21D;73631;44.326;40.200;2024-02-23T03:58:51;4.01;69.84
75134;HTU21D;73631;44.326;40.200;2024-02-23T04:01:17;3.97;69.81
75134;HTU21D;73631;44.326;40.200;2024-02-23T04:03:43;3.93;69.80
75134;HTU21D;73631;44.326;40.200;2024-02-23T04:06:10;3.90;69.84
75134;HTU21D;73631;44.326;40.200;2024-02-23T04:08:36;3.87;69.83
75134;HTU21D;73631;44.326;40.200;2024-02-23T04:11:03;3.83;69.84
75134;HTU21D;73631;44.326;40.200;2024-02-23T04:13:29;3.80;69.82
75134;HTU21D;73631;44.326;40.200;2024-02-23T04:15:55;3.77;69.85
75134;HTU21D;73631;44.326;40.200;2024-02-23T04:18:23;3.73;69.87
75134;HTU21D;73631;44.326;40.200;2024-02-23T04:20:50;3.70;69.94
75134;HTU21D;73631;44.326;40.200;2024-02-23T04:23:16;3.65;69.93
75134;HTU21D;73631;44.326;40.200;2024-02-23T04:25:42;3.62;69.94
75134;HTU21D;73631;44.326;40.200;2024-02-23T04:28:09;3.59;69.94
75134;HTU21D;73631;44.326;40.200;2024-02-23T04:30:35;3.54;69.94
75134;HTU21D;73631;44.326;40.200;2024-02-23T04:33:01;3.49;69.90
75134;HTU21D;73631;44.326;40.200;2024-02-23T04:35:28;3.42;69.98
75134;HTU21D;73631;44.326;40.200;2024-02-23T04:37:54;3.36;69.98
75134;HTU21D;73631;44.326;40.200;2024-02-23T04:40:20;3.30;70.02
75134;HTU21D;73631;44.326;40.200;2024-02-23T04:42:47;3.25;70.14
75134;HTU21D;73631;44.326;40.200;2024-02-23T04:45:13;3.23;70.22
75134;HTU21D;73631;44.326;40.200;2024-02-23T04:47:40;3.23;70.26
75134;HTU21D;73631;44.326;40.200;2024-02-23T04:50:07;3.21;70.20
75134;HTU21D;73631;44.326;40.200;2024-02-23T04:52:33;3.17;70.12
75134;HTU21D;73631;44.326;40.200;2024-02-23T04:54:59;3.14;70.13
75134;HTU21D;73631;44.326;40.200;2024-02-23T04:57:26;3.11;70.21
75134;HTU21D;73631;44.326;40.200;2024-02-23T04:59:52;3.09;70.28
75134;HTU21D;73631;44.326;40.200;2024-02-23T05:02:18;3.08;70.29
75134;HTU21D;73631;44.326;40.200;2024-02-23T05:04:45;3.09;70.30
75134;HTU21D;73631;44.326;40.200;2024-02-23T05:07:12;3.06;70.25
75134;HTU21D;73631;44.326;40.200;2024-02-23T05:09:38;3.03;70.26
75134;HTU21D;73631;44.326;40.200;2024-02-23T05:12:09;3.00;70.32
75134;HTU21D;73631;44.326;40.200;2024-02-23T05:14:36;3.01;70.42
75134;HTU21D;73631;44.326;40.200;2024-02-23T05:17:02;3.01;70.47
75134;HTU21D;73631;44.326;40.200;2024-02-23T05:19:29;3.02;70.52
75134;HTU21D;73631;44.326;40.200;2024-02-23T05:21:56;3.06;70.57
75134;HTU21D;73631;44.326;40.200;2024-02-23T05:24:22;3.12;70.61
75134;HTU21D;73631;44.326;40.200;2024-02-23T05:26:49;3.17;70.71
75134;HTU21D;73631;44.326;40.200;2024-02-23T05:29:15;3.23;70.75
75134;HTU21D;73631;44.326;40.200;2024-02-23T05:31:46;3.31;70.79
75134;HTU21D;73631;44.326;40.200;2024-02-23T05:34:13;3.39;70.81
75134;HTU21D;73631;44.326;40.200;2024-02-23T05:36:40;3.46;70.81
75134;HTU21D;73631;44.326;40.200;2024-02-23T05:39:06;3.54;70.79
75134;HTU21D;73631;44.326;40.200;2024-02-23T05:41:34;3.61;70.78
75134;HTU21D;73631;44.326;40.200;2024-02-23T05:44:00;3.69;70.75
75134;HTU21D;73631;44.326;40.200;2024-02-23T05:46:29;3.75;70.68
75134;HTU21D;73631;44.326;40.200;2024-02-23T05:48:57;3.78;70.69
75134;HTU21D;73631;44.326;40.200;2024-02-23T05:51:23;3.82;70.68
75134;HTU21D;73631;44.326;40.200;2024-02-23T05:53:50;3.85;70.68
75134;HTU21D;73631;44.326;40.200;2024-02-23T05:56:16;3.89;70.66
75134;HTU21D;73631;44.326;40.200;2024-02-23T05:58:43;3.95;70.66
75134;HTU21D;73631;44.326;40.200;2024-02-23T06:01:09;3.99;70.65
75134;HTU21D;73631;44.326;40.200;2024-02-23T06:03:36;4.03;70.64
75134;HTU21D;73631;44.326;40.200;2024-02-23T06:06:07;4.08;70.66
75134;HTU21D;73631;44.326;40.200;2024-02-23T06:08:35;4.14;70.64
75134;HTU21D;73631;44.326;40.200;2024-02-23T06:11:03;4.20;70.69
75134;HTU21D;73631;44.326;40.200;2024-02-23T06:13:30;4.27;70.69
75134;HTU21D;73631;44.326;40.200;2024-02-23T06:15:56;4.34;70.73
75134;HTU21D;73631;44.326;40.200;2024-02-23T06:18:23;4.42;70.70
75134;HTU21D;73631;44.326;40.200;2024-02-23T06:20:50;4.49;70.68
75134;HTU21D;73631;44.326;40.200;2024-02-23T06:23:17;4.56;70.72
75134;HTU21D;73631;44.326;40.200;2024-02-23T06:25:45;4.65;70.79
75134;HTU21D;73631;44.326;40.200;2024-02-23T06:28:11;4.77;70.81
75134;HTU21D;73631;44.326;40.200;2024-02-23T06:30:38;4.88;70.80
75134;HTU21D;73631;44.326;40.200;2024-02-23T06:33:05;4.97;70.73
75134;HTU21D;73631;44.326;40.200;2024-02-23T06:35:32;5.09;70.71
75134;HTU21D;73631;44.326;40.200;2024-02-23T06:37:58;5.20;70.58
75134;HTU21D;73631;44.326;40.200;2024-02-23T06:40:25;5.31;70.58
75134;HTU21D;73631;44.326;40.200;2024-02-23T06:42:51;5.45;70.58
75134;HTU21D;73631;44.326;40.200;2024-02-23T06:45:17;5.60;70.43
75134;HTU21D;73631;44.326;40.200;2024-02-23T06:47:45;5.76;70.40
75134;HTU21D;73631;44.326;40.200;2024-02-23T06:50:11;5.90;70.24
75134;HTU21D;73631;44.326;40.200;2024-02-23T06:52:37;6.04;70.20
75134;HTU21D;73631;44.326;40.200;2024-02-23T06:55:04;6.20;70.09
75134;HTU21D;73631;44.326;40.200;2024-02-23T06:57:31;6.36;70.05
75134;HTU21D;73631;44.326;40.200;2024-02-23T06:59:57;6.56;69.92
75134;HTU21D;73631;44.326;40.200;2024-02-23T07:02:24;6.74;69.74
75134;HTU21D;73631;44.326;40.200;2024-02-23T07:04:50;6.89;69.45
75134;HTU21D;73631;44.326;40.200;2024-02-23T07:07:16;6.99;69.20
75134;HTU21D;73631;44.326;40.200;2024-02-23T07:09:43;7.04;69.05
75134;HTU21D;73631;44.326;40.200;2024-02-23T07:12:09;7.09;69.13
75134;HTU21D;73631;44.326;40.200;2024-02-23T07:14:39;7.20;69.17
75134;HTU21D;73631;44.326;40.200;2024-02-23T07:17:06;7.33;69.04
75134;HTU21D;73631;44.326;40.200;2024-02-23T07:19:34;7.45;68.94
75134;HTU21D;73631;44.326;40.200;2024-02-23T07:22:00;7.58;68.81
75134;HTU21D;73631;44.326;40.200;2024-02-23T07:24:27;7.69;68.76
75134;HTU21D;73631;44.326;40.200;2024-02-23T07:26:54;7.85;68.60
75134;HTU21D;73631;44.326;40.200;2024-02-23T07:29:21;7.96;68.37
75134;HTU21D;73631;44.326;40.200;2024-02-23T07:31:47;8.08;68.20
75134;HTU21D;73631;44.326;40.200;2024-02-23T07:34:13;8.22;68.08
75134;HTU21D;73631;44.326;40.200;2024-02-23T07:36:40;8.32;67.94
75134;HTU21D;73631;44.326;40.200;2024-02-23T07:39:06;8.46;67.85
75134;HTU21D;73631;44.326;40.200;2024-02-23T07:41:33;8.61;67.60
75134;HTU21D;73631;44.326;40.200;2024-02-23T07:43:59;8.70;67.43
75134;HTU21D;73631;44.326;40.200;2024-02-23T07:46:27;8.85;67.31
75134;HTU21D;73631;44.326;40.200;2024-02-23T07:48:53;8.95;67.12
75134;HTU21D;73631;44.326;40.200;2024-02-23T07:51:20;9.10;67.10
75134;HTU21D;73631;44.326;40.200;2024-02-23T07:53:46;9.27;66.83
75134;HTU21D;73631;44.326;40.200;2024-02-23T07:56:13;9.45;66.37
75134;HTU21D;73631;44.326;40.200;2024-02-23T07:58:39;9.56;66.11
75134;HTU21D;73631;44.326;40.200;2024-02-23T08:01:06;9.66;65.97
75134;HTU21D;73631;44.326;40.200;2024-02-23T08:03:32;9.77;65.80
75134;HTU21D;73631;44.326;40.200;2024-02-23T08:05:59;9.84;65.48
75134;HTU21D;73631;44.326;40.200;2024-02-23T08:08:27;9.90;65.52
75134;HTU21D;73631;44.326;40.200;2024-02-23T08:10:53;9.93;65.40
75134;HTU21D;73631;44.326;40.200;2024-02-23T08:13:20;10.08;65.41
75134;HTU21D;73631;44.326;40.200;2024-02-23T08:15:46;10.23;65.15
75134;HTU21D;73631;44.326;40.200;2024-02-23T08:18:13;10.43;64.92
75134;HTU21D;73631;44.326;40.200;2024-02-23T08:20:39;10.60;64.66
75134;HTU21D;73631;44.326;40.200;2024-02-23T08:23:06;10.81;64.36
75134;HTU21D;73631;44.326;40.200;2024-02-23T08:25:33;11.02;64.23
75134;HTU21D;73631;44.326;40.200;2024-02-23T08:28:00;11.25;63.76
75134;HTU21D;73631;44.326;40.200;2024-02-23T08:30:26;11.40;63.29
75134;HTU21D;73631;44.326;40.200;2024-02-23T08:32:55;11.57;63.02
75134;HTU21D;73631;44.326;40.200;2024-02-23T08:35:22;11.72;62.63
75134;HTU21D;73631;44.326;40.200;2024-02-23T08:37:49;11.82;62.25
75134;HTU21D;73631;44.326;40.200;2024-02-23T08:40:15;11.93;62.00
75134;HTU21D;73631;44.326;40.200;2024-02-23T08:42:41;12.07;61.87
75134;HTU21D;73631;44.326;40.200;2024-02-23T08:45:09;12.20;61.54
75134;HTU21D;73631;44.326;40.200;2024-02-23T08:47:41;12.34;61.38
75134;HTU21D;73631;44.326;40.200;2024-02-23T08:50:08;12.48;61.41
75134;HTU21D;73631;44.326;40.200;2024-02-23T08:52:35;12.72;61.02
75134;HTU21D;73631;44.326;40.200;2024-02-23T08:55:01;12.96;60.86
75134;HTU21D;73631;44.326;40.200;2024-02-23T08:57:28;13.27;59.86
75134;HTU21D;73631;44.326;40.200;2024-02-23T08:59:56;13.37;58.59
75134;HTU21D;73631;44.326;40.200;2024-02-23T09:02:27;13.31;58.64
75134;HTU21D;73631;44.326;40.200;2024-02-23T09:04:53;13.22;58.67
75134;HTU21D;73631;44.326;40.200;2024-02-23T09:07:20;13.22;58.58
75134;HTU21D;73631;44.326;40.200;2024-02-23T09:09:47;13.25;58.64
75134;HTU21D;73631;44.326;40.200;2024-02-23T09:12:16;13.31;58.51
75134;HTU21D;73631;44.326;40.200;2024-02-23T09:14:43;13.37;58.47
75134;HTU21D;73631;44.326;40.200;2024-02-23T09:17:10;13.48;58.48
75134;HTU21D;73631;44.326;40.200;2024-02-23T09:19:37;13.54;58.04
75134;HTU21D;73631;44.326;40.200;2024-02-23T09:22:04;13.58;58.00
75134;HTU21D;73631;44.326;40.200;2024-02-23T09:24:31;13.66;58.02
75134;HTU21D;73631;44.326;40.200;2024-02-23T09:26:58;13.74;57.75
75134;HTU21D;73631;44.326;40.200;2024-02-23T09:29:25;13.91;57.67
75134;HTU21D;73631;44.326;40.200;2024-02-23T09:31:51;14.11;57.39
75134;HTU21D;73631;44.326;40.200;2024-02-23T09:34:18;14.24;56.55
75134;HTU21D;73631;44.326;40.200;2024-02-23T09:36:45;14.24;56.50
75134;HTU21D;73631;44.326;40.200;2024-02-23T09:39:11;14.25;56.10
75134;HTU21D;73631;44.326;40.200;2024-02-23T09:41:39;14.19;55.89
75134;HTU21D;73631;44.326;40.200;2024-02-23T09:44:06;14.11;55.55
75134;HTU21D;73631;44.326;40.200;2024-02-23T09:46:38;14.01;55.47
75134;HTU21D;73631;44.326;40.200;2024-02-23T09:49:07;13.90;55.57
75134;HTU21D;73631;44.326;40.200;2024-02-23T09:51:35;13.80;55.13
75134;HTU21D;73631;44.326;40.200;2024-02-23T09:54:02;13.65;55.23
75134;HTU21D;73631;44.326;40.200;2024-02-23T09:56:29;13.55;55.33
75134;HTU21D;73631;44.326;40.200;2024-02-23T09:59:00;13.45;55.41
75134;HTU21D;73631;44.326;40.200;2024-02-23T10:01:28;13.41;55.49
75134;HTU21D;73631;44.326;40.200;2024-02-23T10:03:57;13.43;55.36
75134;HTU21D;73631;44.326;40.200;2024-02-23T10:06:25;13.41;55.20
75134;HTU21D;73631;44.326;40.200;2024-02-23T10:08:52;13.43;55.19
75134;HTU21D;73631;44.326;40.200;2024-02-23T10:11:24;13.50;55.19
75134;HTU21D;73631;44.326;40.200;2024-02-23T10:13:52;13.56;55.29
75134;HTU21D;73631;44.326;40.200;2024-02-23T10:16:22;13.61;54.83
75134;HTU21D;73631;44.326;40.200;2024-02-23T10:18:49;13.62;54.75
75134;HTU21D;73631;44.326;40.200;2024-02-23T10:21:16;13.58;54.67
75134;HTU21D;73631;44.326;40.200;2024-02-23T10:23:44;13.48;54.51
75134;HTU21D;73631;44.326;40.200;2024-02-23T10:26:11;13.37;54.36
75134;HTU21D;73631;44.326;40.200;2024-02-23T10:28:38;13.29;54.16
75134;HTU21D;73631;44.326;40.200;2024-02-23T10:31:06;13.23;54.17
75134;HTU21D;73631;44.326;40.200;2024-02-23T10:33:32;13.24;54.59
75134;HTU21D;73631;44.326;40.200;2024-02-23T10:36:00;13.26;54.28
75134;HTU21D;73631;44.326;40.200;2024-02-23T10:38:27;13.38;54.17
75134;HTU21D;73631;44.326;40.200;2024-02-23T10:40:58;13.59;54.26
75134;HTU21D;73631;44.326;40.200;2024-02-23T10:43:36;13.92;54.33
75134;HTU21D;73631;44.326;40.200;2024-02-23T10:46:05;14.28;53.80
75134;HTU21D;73631;44.326;40.200;2024-02-23T10:48:34;14.63;53.43
75134;HTU21D;73631;44.326;40.200;2024-02-23T10:51:03;14.93;52.98
75134;HTU21D;73631;44.326;40.200;2024-02-23T10:53:31;15.23;52.62
75134;HTU21D;73631;44.326;40.200;2024-02-23T10:56:00;15.40;52.25
75134;HTU21D;73631;44.326;40.200;2024-02-23T10:58:27;15.62;52.09
75134;HTU21D;73631;44.326;40.200;2024-02-23T11:01:04;15.86;51.99
75134;HTU21D;73631;44.326;40.200;2024-02-23T11:03:33;15.92;51.16
75134;HTU21D;73631;44.326;40.200;2024-02-23T11:06:00;16.00;50.77
75134;HTU21D;73631;44.326;40.200;2024-02-23T11:08:30;16.00;50.30
75134;HTU21D;73631;44.326;40.200;2024-02-23T11:11:10;15.98;50.34
75134;HTU21D;73631;44.326;40.200;2024-02-23T11:13:40;15.98;50.43
75134;HTU21D;73631;44.326;40.200;2024-02-23T11:16:08;16.03;49.97
75134;HTU21D;73631;44.326;40.200;2024-02-23T11:18:41;16.07;50.08
75134;HTU21D;73631;44.326;40.200;2024-02-23T11:21:10;16.13;49.79
75134;HTU21D;73631;44.326;40.200;2024-02-23T11:23:54;16.16;50.04
75134;HTU21D;73631;44.326;40.200;2024-02-23T11:26:23;16.24;49.64
75134;HTU21D;73631;44.326;40.200;2024-02-23T11:28:50;16.34;49.47
75134;HTU21D;73631;44.326;40.200;2024-02-23T11:31:37;16.43;49.76
75134;HTU21D;73631;44.326;40.200;2024-02-23T11:35:18;16.37;48.79
75134;HTU21D;73631;44.326;40.200;2024-02-23T11:38:38;16.20;49.21
75134;HTU21D;73631;44.326;40.200;2024-02-23T11:41:42;16.20;49.77
75134;HTU21D;73631;44.326;40.200;2024-02-23T11:45:35;16.11;49.20
75134;HTU21D;73631;44.326;40.200;2024-02-23T11:48:14;15.99;48.61
75134;HTU21D;73631;44.326;40.200;2024-02-23T11:51:07;15.77;48.73
75134;HTU21D;73631;44.326;40.200;2024-02-23T11:53:49;15.57;48.82
75134;HTU21D;73631;44.326;40.200;2024-02-23T11:56:19;15.52;49.21
75134;HTU21D;73631;44.326;40.200;2024-02-23T11:58:47;15.58;49.18
75134;HTU21D;73631;44.326;40.200;2024-02-23T12:01:22;15.67;48.74
75134;HTU21D;73631;44.326;40.200;2024-02-23T12:03:48;15.63;48.67
75134;HTU21D;73631;44.326;40.200;2024-02-23T12:06:15;15.62;48.63
75134;HTU21D;73631;44.326;40.200;2024-02-23T12:08:42;15.63;48.61
75134;HTU21D;73631;44.326;40.200;2024-02-23T12:11:11;15.59;48.54
75134;HTU21D;73631;44.326;40.200;2024-02-23T12:13:40;15.47;48.30
75134;HTU21D;73631;44.326;40.200;2024-02-23T12:16:09;15.30;48.39
75134;HTU21D;73631;44.326;40.200;2024-02-23T12:18:37;15.10;48.44
75134;HTU21D;73631;44.326;40.200;2024-02-23T12:21:07;14.92;48.68
75134;HTU21D;73631;44.326;40.200;2024-02-23T12:23:41;14.74;48.82
75134;HTU21D;73631;44.326;40.200;2024-02-23T12:26:09;14.59;48.86
75134;HTU21D;73631;44.326;40.200;2024-02-23T12:28:36;14.49;49.05
75134;HTU21D;73631;44.326;40.200;2024-02-23T12:31:04;14.48;49.31
75134;HTU21D;73631;44.326;40.200;2024-02-23T12:33:38;14.52;49.34
75134;HTU21D;73631;44.326;40.200;2024-02-23T12:36:08;14.57;49.46
75134;HTU21D;73631;44.326;40.200;2024-02-23T12:38:35;14.74;49.33
75134;HTU21D;73631;44.326;40.200;2024-02-23T12:41:03;14.85;48.99
75134;HTU21D;73631;44.326;40.200;2024-02-23T12:43:31;14.97;48.95
75134;HTU21D;73631;44.326;40.200;2024-02-23T12:45:58;15.06;48.66
75134;HTU21D;73631;44.326;40.200;2024-02-23T12:48:24;15.07;48.47
75134;HTU21D;73631;44.326;40.200;2024-02-23T12:50:51;15.01;48.38
75134;HTU21D;73631;44.326;40.200;2024-02-23T12:53:37;14.91;48.63
75134;HTU21D;73631;44.326;40.200;2024-02-23T12:56:10;14.79;48.41
75134;HTU21D;73631;44.326;40.200;2024-02-23T12:58:41;14.62;48.57
75134;HTU21D;73631;44.326;40.200;2024-02-23T13:01:09;14.48;48.59
75134;HTU21D;73631;44.326;40.200;2024-02-23T13:03:38;14.32;48.71
75134;HTU21D;73631;44.326;40.200;2024-02-23T13:06:08;14.13;48.83
75134;HTU21D;73631;44.326;40.200;2024-02-23T13:08:39;13.98;48.79
75134;HTU21D;73631;44.326;40.200;2024-02-23T13:11:07;13.81;48.97
75134;HTU21D;73631;44.326;40.200;2024-02-23T13:13:34;13.70;49.27
75134;HTU21D;73631;44.326;40.200;2024-02-23T13:16:01;13.59;49.34
75134;HTU21D;73631;44.326;40.200;2024-02-23T13:18:32;13.46;50.05
75134;HTU21D;73631;44.326;40.200;2024-02-23T13:20:59;13.36;49.91
75134;HTU21D;73631;44.326;40.200;2024-02-23T13:23:26;13.27;49.97
75134;HTU21D;73631;44.326;40.200;2024-02-23T13:25:55;13.22;50.03
75134;HTU21D;73631;44.326;40.200;2024-02-23T13:28:22;13.17;50.02
75134;HTU21D;73631;44.326;40.200;2024-02-23T13:30:49;13.11;50.04
75134;HTU21D;73631;44.326;40.200;2024-02-23T13:33:15;13.06;50.02
75134;HTU21D;73631;44.326;40.200;2024-02-23T13:35:42;13.01;50.14
75134;HTU21D;73631;44.326;40.200;2024-02-23T13:38:09;12.96;50.24
75134;HTU21D;73631;44.326;40.200;2024-02-23T13:40:35;12.94;50.34
75134;HTU21D;73631;44.326;40.200;2024-02-23T13:43:02;12.91;50.24
75134;HTU21D;73631;44.326;40.200;2024-02-23T13:45:28;12.89;50.22
75134;HTU21D;73631;44.326;40.200;2024-02-23T13:48:01;12.89;50.25
75134;HTU21D;73631;44.326;40.200;2024-02-23T13:50:30;12.89;50.34
75134;HTU21D;73631;44.326;40.200;2024-02-23T13:52:57;12.90;50.38
75134;HTU21D;73631;44.326;40.200;2024-02-23T13:55:25;12.92;50.46
75134;HTU21D;73631;44.326;40.200;2024-02-23T13:57:52;12.95;50.43
75134;HTU21D;73631;44.326;40.200;2024-02-23T14:00:19;12.95;50.24
75134;HTU21D;73631;44.326;40.200;2024-02-23T14:02:48;12.94;50.15
75134;HTU21D;73631;44.326;40.200;2024-02-23T14:05:16;12.91;50.12
75134;HTU21D;73631;44.326;40.200;2024-02-23T14:07:45;12.85;50.04
75134;HTU21D;73631;44.326;40.200;2024-02-23T14:10:13;12.77;50.18
75134;HTU21D;73631;44.326;40.200;2024-02-23T14:12:41;12.72;50.21
75134;HTU21D;73631;44.326;40.200;2024-02-23T14:15:09;12.64;50.34
75134;HTU21D;73631;44.326;40.200;2024-02-23T14:17:39;12.57;50.29
75134;HTU21D;73631;44.326;40.200;2024-02-23T14:20:06;12.47;50.36
75134;HTU21D;73631;44.326;40.200;2024-02-23T14:22:35;12.37;50.48
75134;HTU21D;73631;44.326;40.200;2024-02-23T14:25:01;12.32;50.62
75134;HTU21D;73631;44.326;40.200;2024-02-23T14:27:28;12.25;50.66
75134;HTU21D;73631;44.326;40.200;2024-02-23T14:29:58;12.19;50.63
75134;HTU21D;73631;44.326;40.200;2024-02-23T14:32:28;12.12;50.70
75134;HTU21D;73631;44.326;40.200;2024-02-23T14:35:03;12.06;50.88
75134;HTU21D;73631;44.326;40.200;2024-02-23T14:37:30;12.03;50.93
75134;HTU21D;73631;44.326;40.200;2024-02-23T14:40:00;11.99;51.02
75134;HTU21D;73631;44.326;40.200;2024-02-23T14:42:28;11.96;51.08
75134;HTU21D;73631;44.326;40.200;2024-02-23T14:44:54;11.91;51.15
75134;HTU21D;73631;44.326;40.200;2024-02-23T14:50:34;11.82;51.36
75134;HTU21D;73631;44.326;40.200;2024-02-23T14:53:20;11.77;51.47
75134;HTU21D;73631;44.326;40.200;2024-02-23T14:55:47;11.73;51.59
75134;HTU21D;73631;44.326;40.200;2024-02-23T14:58:14;11.70;51.69
75134;HTU21D;73631;44.326;40.200;2024-02-23T15:00:41;11.67;51.76
75134;HTU21D;73631;44.326;40.200;2024-02-23T15:03:08;11.64;51.83
75134;HTU21D;73631;44.326;40.200;2024-02-23T15:05:37;11.60;51.88
75134;HTU21D;73631;44.326;40.200;2024-02-23T15:08:03;11.56;51.90
75134;HTU21D;73631;44.326;40.200;2024-02-23T15:10:30;11.54;51.91
75134;HTU21D;73631;44.326;40.200;2024-02-23T15:13:00;11.49;52.04
75134;HTU21D;73631;44.326;40.200;2024-02-23T15:15:29;11.45;52.00
75134;HTU21D;73631;44.326;40.200;2024-02-23T15:20:54;11.36;52.08
75134;HTU21D;73631;44.326;40.200;2024-02-23T15:23:24;11.29;52.05